Aérodrome :
LOGIN :

S'inscrire | Disclaimer

   EN    FR    IT 

 










Légende :    VFR   VFR Marginal   IFR   IFR Intensif   IFR Très Intensif
Visi : 
Plafond : 
>= 8 km
>= 3000ft
5 à 8 km
1000 à 3000 ft
1500m à 5 km
500 à 1000 ft
800 à 1500m
200 à 500 ft
< 800m
< 200 ft
Symboles :   Orages  Brouillard  Fortes neiges  Fortes précipitations  Vent > 20 kt
SIGMETs :   Divers  Orages  Givrage  Turbulence  Onde Orograph.  Cendres Volcan.






- Altitude de l'aérodrome : 63 ft
- Code IATA : BZM


EHWO - Woensdrecht Airbase

DERNIER METAR :
  • 170312Z AUTO 20006KT 150V230 9999 -SHRA FEW007 SCT012 BKN014 FEW015CB 11/09 Q0999 GRN

METARs EXPIRÉS :
  • 170302Z AUTO 20006KT 150V240 9999 -RADZ FEW009 SCT011 BKN013 FEW015CB 11/09 Q0999 GRN
  • 170255Z AUTO 19005KT 160V230 9999 -SHRA FEW009 SCT010 BKN013 FEW015CB 10/09 Q0999 REDZ GRN
  • 170225Z AUTO 19006KT 130V230 9999 SHRA FEW008 SCT009 BKN011 FEW015CB 10/09 Q0999 REDZ GRN
  • 170203Z AUTO 18006KT 140V210 9999 -RA FEW008 SCT011 BKN013 FEW015CB 10/09 Q0999 GRN
  • 170155Z AUTO 18005KT 150V220 9999 -SHRA FEW011 SCT014 FEW015CB BKN019 10/09 Q0999 REDZ GRN
  • 170137Z AUTO 19006KT 160V230 9000 DZRA SCT012 BKN014 FEW015CB 10/09 Q0999 GRN
  • 170129Z AUTO 19006KT 160V230 9999 FEW012 SCT014 FEW015CB BKN020 10/09 Q0999 GRN
  • 170125Z AUTO 19006KT 160V230 9999 FEW012 SCT015 BKN020 10/09 Q0999 WHT
  • 170103Z AUTO 20007KT 160V230 9999 FEW013 OVC046 11/09 Q0999 BLU
  • 170059Z AUTO 20006KT 160V230 9999 FEW013 SCT016 BKN049 11/09 Q0999 WHT
  • 170055Z AUTO 20005KT 140V230 9999 FEW013 BKN050 OVC056 10/09 Q0999 BLU
  • 170025Z AUTO 19006KT 150V240 9999 OVC043 11/09 Q0999 BLU

Prévision TAF périmée.



MET'MAP, la Météo Aéronautique d'un coup d'oeil ! - Copyright ORBIFLY Décembre 2007 - Disclaimer

ORBIFLY MET'MAP TEAM :

Programmation & Développement : Alexandra Zaïnal
Sur une idée originale de : Baudouin d'Aumeries
Assistance à la programmation : Marc-Olivier Méhu
Soutien technique & logistique : Manuel Goepfert

Contact : metmap@orbifly.com




SOURCES & CREDITS :

   NOAA